createdAt,value
2018-10-03T00:00:23.530Z,89.60
2018-10-03T00:02:58.011Z,90.00
2018-10-03T00:05:31.421Z,89.00
2018-10-03T00:08:04.859Z,89.50
2018-10-03T00:10:38.255Z,90.10
2018-10-03T00:13:11.672Z,89.30
2018-10-03T00:15:45.176Z,88.80
2018-10-03T00:18:18.599Z,88.20
2018-10-03T00:20:51.995Z,88.60
2018-10-03T00:23:25.422Z,88.50
2018-10-03T00:25:58.846Z,88.10
2018-10-03T00:28:32.255Z,87.60
2018-10-03T00:31:06.133Z,87.40
2018-10-03T00:33:39.538Z,87.90
2018-10-03T00:36:12.928Z,87.60
2018-10-03T00:38:46.341Z,87.90
2018-10-03T00:41:19.829Z,87.80
2018-10-03T00:43:53.248Z,88.30
2018-10-03T00:46:26.614Z,88.30
2018-10-03T00:49:00.019Z,87.50
2018-10-03T00:51:33.405Z,87.30
2018-10-03T00:54:06.956Z,87.20
2018-10-03T00:56:40.335Z,87.70
2018-10-03T00:59:13.736Z,87.80
2018-10-03T01:01:47.111Z,87.90
2018-10-03T01:04:20.511Z,87.80
2018-10-03T01:06:54.927Z,87.40
2018-10-03T01:09:28.337Z,86.70
2018-10-03T01:12:01.791Z,87.10
2018-10-03T01:14:35.355Z,87.10
2018-10-03T01:17:08.788Z,87.00
2018-10-03T01:19:42.234Z,87.00
2018-10-03T01:22:15.696Z,87.00
2018-10-03T01:24:49.111Z,87.10
2018-10-03T01:27:22.511Z,87.10
2018-10-03T01:29:55.928Z,87.10
2018-10-03T01:32:29.726Z,87.00
2018-10-03T01:35:03.157Z,87.20
2018-10-03T01:37:36.559Z,87.20
2018-10-03T01:40:10.008Z,86.90
2018-10-03T01:42:43.432Z,86.70
2018-10-03T01:45:16.831Z,86.80
2018-10-03T01:47:50.340Z,86.70
2018-10-03T01:50:23.742Z,86.60
2018-10-03T01:52:57.165Z,87.50
2018-10-03T01:55:30.568Z,88.60
2018-10-03T01:58:03.983Z,89.50
2018-10-03T02:00:37.374Z,88.70
2018-10-03T02:03:10.867Z,89.10
2018-10-03T02:05:44.282Z,88.70
2018-10-03T02:08:17.695Z,89.30
2018-10-03T02:10:51.091Z,90.50
2018-10-03T02:13:24.496Z,90.60
2018-10-03T02:15:57.983Z,91.50
2018-10-03T02:18:31.371Z,91.40
2018-10-03T02:21:04.755Z,92.10
2018-10-03T02:23:38.143Z,92.00
2018-10-03T02:26:11.535Z,92.60
2018-10-03T02:28:44.923Z,92.80
2018-10-03T02:31:18.299Z,93.40
2018-10-03T02:33:51.940Z,92.80
2018-10-03T02:36:25.325Z,93.20
2018-10-03T02:38:58.720Z,93.00
2018-10-03T02:41:32.128Z,93.50
2018-10-03T02:44:05.648Z,93.80
2018-10-03T02:46:39.035Z,93.60
2018-10-03T02:49:12.432Z,93.30
2018-10-03T02:51:45.804Z,93.50
2018-10-03T02:54:19.223Z,93.90
2018-10-03T02:56:52.603Z,93.60
2018-10-03T02:59:25.995Z,93.70
2018-10-03T03:01:59.372Z,93.80
2018-10-03T03:04:32.762Z,93.30
2018-10-03T03:07:06.189Z,93.60
2018-10-03T03:09:39.592Z,93.70
2018-10-03T03:12:12.969Z,93.80
2018-10-03T03:14:46.387Z,93.60
2018-10-03T03:17:19.750Z,93.90
2018-10-03T03:19:53.214Z,93.50
2018-10-03T03:22:26.692Z,93.60
2018-10-03T03:25:00.124Z,93.50
2018-10-03T03:27:33.500Z,93.20
2018-10-03T03:30:06.940Z,92.90
2018-10-03T03:32:40.309Z,92.90
2018-10-03T03:35:13.712Z,92.80
2018-10-03T03:37:47.088Z,92.70
2018-10-03T03:40:20.575Z,92.70
2018-10-03T03:42:53.988Z,92.80
2018-10-03T03:45:27.400Z,92.90
2018-10-03T03:48:00.839Z,92.90
2018-10-03T03:50:34.249Z,92.50
2018-10-03T03:53:07.646Z,92.70
2018-10-03T03:55:41.092Z,92.60
2018-10-03T03:58:14.500Z,92.50
2018-10-03T04:00:47.920Z,92.50
2018-10-03T04:03:21.355Z,92.50
2018-10-03T04:05:54.768Z,92.90
2018-10-03T04:08:28.165Z,92.80
2018-10-03T04:11:01.579Z,92.40
2018-10-03T04:13:34.970Z,92.10
2018-10-03T04:16:08.437Z,92.40
2018-10-03T04:18:41.839Z,92.70
2018-10-03T04:21:15.357Z,92.60
2018-10-03T04:23:48.757Z,92.40
2018-10-03T04:26:22.173Z,92.20
2018-10-03T04:28:55.573Z,92.40
2018-10-03T04:31:29.027Z,92.60
2018-10-03T04:34:02.711Z,92.00
2018-10-03T04:36:36.329Z,91.70
2018-10-03T04:39:09.727Z,92.20
2018-10-03T04:41:43.159Z,92.30
2018-10-03T04:44:16.628Z,92.30
2018-10-03T04:46:50.043Z,92.70
2018-10-03T04:49:23.475Z,92.30
2018-10-03T04:51:56.894Z,92.50
2018-10-03T04:54:30.292Z,92.60
2018-10-03T04:57:03.720Z,92.90
2018-10-03T04:59:37.127Z,93.00
2018-10-03T05:02:10.548Z,92.70
2018-10-03T05:04:43.948Z,92.90
2018-10-03T05:07:17.356Z,92.90
2018-10-03T05:09:50.747Z,93.70
2018-10-03T05:12:24.167Z,93.60
2018-10-03T05:14:57.556Z,93.30
2018-10-03T05:17:30.964Z,93.60
2018-10-03T05:20:04.455Z,94.00
2018-10-03T05:22:37.869Z,93.60
2018-10-03T05:25:11.273Z,93.30
2018-10-03T05:27:44.794Z,93.10
2018-10-03T05:30:18.239Z,93.10
2018-10-03T05:32:51.656Z,93.20
2018-10-03T05:35:25.048Z,92.90
2018-10-03T05:37:58.468Z,93.20
2018-10-03T05:40:31.882Z,93.00
2018-10-03T05:43:05.300Z,92.90
2018-10-03T05:45:38.676Z,93.30
2018-10-03T05:48:12.095Z,92.70
2018-10-03T05:50:45.478Z,92.70
2018-10-03T05:53:18.871Z,92.80
2018-10-03T05:55:52.253Z,92.40
2018-10-03T05:58:25.647Z,92.40
2018-10-03T06:00:59.023Z,92.60
2018-10-03T06:03:32.413Z,92.80
2018-10-03T06:06:06.620Z,92.50
2018-10-03T06:08:40.007Z,92.50
2018-10-03T06:11:14.440Z,92.20
2018-10-03T06:13:47.827Z,92.40
2018-10-03T06:16:21.207Z,92.80
2018-10-03T06:18:54.603Z,92.60
2018-10-03T06:21:27.983Z,92.40
2018-10-03T06:24:01.388Z,92.70
2018-10-03T06:26:34.766Z,92.50
2018-10-03T06:29:08.181Z,92.40
2018-10-03T06:31:41.612Z,92.50
2018-10-03T06:34:15.003Z,92.10
2018-10-03T06:36:48.371Z,92.40
2018-10-03T06:39:21.807Z,92.40
2018-10-03T06:41:55.183Z,92.30
2018-10-03T06:44:28.599Z,92.30
2018-10-03T06:47:01.994Z,92.10
2018-10-03T06:49:35.404Z,92.20
2018-10-03T06:52:08.853Z,92.20
2018-10-03T06:54:42.271Z,92.20
2018-10-03T06:57:15.699Z,92.20
2018-10-03T06:59:49.115Z,92.00
2018-10-03T07:02:22.640Z,91.90
2018-10-03T07:04:56.069Z,92.00
2018-10-03T07:07:29.464Z,92.20
2018-10-03T07:10:02.872Z,92.00
2018-10-03T07:12:36.291Z,91.70
2018-10-03T07:15:09.732Z,92.20
2018-10-03T07:17:43.176Z,91.80
2018-10-03T07:20:16.640Z,91.80
2018-10-03T07:22:50.024Z,91.90
2018-10-03T07:25:23.437Z,92.00
2018-10-03T07:27:56.844Z,92.00
2018-10-03T07:30:30.259Z,92.10
2018-10-03T07:33:03.648Z,92.00
2018-10-03T07:35:37.080Z,91.70
2018-10-03T07:38:10.467Z,92.10
2018-10-03T07:40:43.879Z,92.00
2018-10-03T07:43:17.317Z,92.20
2018-10-03T07:45:50.801Z,92.10
2018-10-03T07:48:24.200Z,91.90
2018-10-03T07:50:57.792Z,91.20
2018-10-03T07:53:31.326Z,91.70
2018-10-03T07:56:04.768Z,91.60
2018-10-03T07:58:38.176Z,91.70
2018-10-03T08:01:11.716Z,91.20
2018-10-03T08:03:45.141Z,91.20
2018-10-03T08:06:18.572Z,91.50
2018-10-03T08:08:51.976Z,91.60
2018-10-03T08:11:25.433Z,91.20
2018-10-03T08:13:58.930Z,91.70
2018-10-03T08:16:34.055Z,91.70
2018-10-03T08:19:07.502Z,91.70
2018-10-03T08:21:40.916Z,92.00
2018-10-03T08:24:14.322Z,91.70
2018-10-03T08:26:47.748Z,91.90
2018-10-03T08:29:21.131Z,92.20
2018-10-03T08:31:54.551Z,92.20
2018-10-03T08:34:27.936Z,91.90
2018-10-03T08:37:01.378Z,91.90
2018-10-03T08:39:34.775Z,91.90
2018-10-03T08:42:08.272Z,91.90
2018-10-03T08:44:41.695Z,91.80
2018-10-03T08:47:16.154Z,91.70
2018-10-03T08:49:49.551Z,92.00
2018-10-03T08:52:23.033Z,91.40
2018-10-03T08:54:56.476Z,91.50
2018-10-03T08:57:29.880Z,91.50
2018-10-03T09:00:03.360Z,91.70
2018-10-03T09:02:36.764Z,91.40
2018-10-03T09:05:10.767Z,91.60
2018-10-03T09:07:44.163Z,91.50
2018-10-03T09:10:17.591Z,91.40
2018-10-03T09:12:51.052Z,91.20
2018-10-03T09:15:24.567Z,91.30
2018-10-03T09:17:58.424Z,91.40
2018-10-03T09:20:31.931Z,91.40
2018-10-03T09:23:05.772Z,91.30
2018-10-03T09:25:39.170Z,91.30
2018-10-03T09:28:12.636Z,91.20
2018-10-03T09:30:46.040Z,91.30
2018-10-03T09:33:19.468Z,91.40
2018-10-03T09:35:52.971Z,91.70
2018-10-03T09:38:26.807Z,91.30
2018-10-03T09:41:00.237Z,91.30
2018-10-03T09:43:33.665Z,91.20
2018-10-03T09:46:07.100Z,91.30
2018-10-03T09:48:40.496Z,91.60
2018-10-03T09:51:13.879Z,91.20
2018-10-03T09:53:47.345Z,91.20
2018-10-03T09:56:20.735Z,91.00
2018-10-03T09:58:54.145Z,90.90
2018-10-03T10:01:31.939Z,91.10
2018-10-03T10:04:05.679Z,91.40
2018-10-03T10:06:39.087Z,91.20
2018-10-03T10:09:12.603Z,90.80
2018-10-03T10:11:47.106Z,91.30
2018-10-03T10:14:20.455Z,91.10
2018-10-03T10:16:54.055Z,91.40
2018-10-03T10:19:27.612Z,91.00
2018-10-03T10:22:01.024Z,90.70
2018-10-03T10:24:34.429Z,90.50
2018-10-03T10:27:08.146Z,90.80
2018-10-03T10:29:41.535Z,90.80
2018-10-03T10:32:14.954Z,90.90
2018-10-03T10:34:48.346Z,90.90
2018-10-03T10:37:22.790Z,90.50
2018-10-03T10:39:56.175Z,90.40
2018-10-03T10:42:29.659Z,90.70
2018-10-03T10:45:03.067Z,90.80
2018-10-03T10:47:36.488Z,90.30
2018-10-03T10:50:09.905Z,90.20
2018-10-03T10:52:43.335Z,90.10
2018-10-03T10:55:16.741Z,90.20
2018-10-03T10:57:50.272Z,90.10
2018-10-03T11:00:23.700Z,90.10
2018-10-03T11:02:57.111Z,90.20
2018-10-03T11:05:30.543Z,90.40
2018-10-03T11:08:04.011Z,91.00
2018-10-03T11:10:37.431Z,91.10
2018-10-03T11:13:12.390Z,90.20
2018-10-03T11:15:45.841Z,90.10
2018-10-03T11:18:19.280Z,90.40
2018-10-03T11:20:52.835Z,90.00
2018-10-03T11:23:26.336Z,89.10
2018-10-03T11:25:59.679Z,89.20
2018-10-03T11:28:33.092Z,89.00
2018-10-03T11:31:06.539Z,89.60
2018-10-03T11:33:39.959Z,88.90
2018-10-03T11:36:13.623Z,89.30
2018-10-03T11:38:47.136Z,89.90
2018-10-03T11:41:20.554Z,89.30
2018-10-03T11:43:54.110Z,89.60
2018-10-03T11:46:27.502Z,88.90
2018-10-03T11:49:00.924Z,88.90
2018-10-03T11:51:34.336Z,89.60
2018-10-03T11:54:07.747Z,89.70
2018-10-03T11:56:41.197Z,89.10
2018-10-03T11:59:14.624Z,88.90
2018-10-03T12:01:48.048Z,88.80
2018-10-03T12:04:21.521Z,90.00
2018-10-03T12:06:55.080Z,88.50
2018-10-03T12:09:28.497Z,88.80
2018-10-03T12:12:01.953Z,88.30
2018-10-03T12:14:35.392Z,86.90
2018-10-03T12:17:08.912Z,88.10
2018-10-03T12:19:42.324Z,88.10
2018-10-03T12:22:15.728Z,88.00
2018-10-03T12:24:49.152Z,88.10
2018-10-03T12:27:22.548Z,89.70
2018-10-03T12:29:55.960Z,89.50
2018-10-03T12:32:29.380Z,89.10
2018-10-03T12:35:02.805Z,90.00
2018-10-03T12:37:36.207Z,89.90
2018-10-03T12:40:09.663Z,90.00
2018-10-03T12:42:43.073Z,89.30
2018-10-03T12:45:16.629Z,89.30
2018-10-03T12:47:50.017Z,89.80
2018-10-03T12:50:23.451Z,89.00
2018-10-03T12:52:56.854Z,88.20
2018-10-03T12:55:30.258Z,88.90
2018-10-03T12:58:03.670Z,88.40
2018-10-03T13:00:37.127Z,89.30
2018-10-03T13:03:10.538Z,88.10
2018-10-03T13:05:43.975Z,88.20
2018-10-03T13:08:17.400Z,88.10
2018-10-03T13:10:50.831Z,88.30
2018-10-03T13:13:24.219Z,86.50
2018-10-03T13:15:57.641Z,87.60
2018-10-03T13:18:31.043Z,88.30
2018-10-03T13:21:04.519Z,87.70
2018-10-03T13:23:37.915Z,87.00
2018-10-03T13:26:12.379Z,88.30
2018-10-03T20:09:15.149Z,90.70
2018-10-03T20:11:49.019Z,90.50
2018-10-03T20:14:22.436Z,90.40
2018-10-03T20:16:55.895Z,90.80
2018-10-03T20:19:29.311Z,91.00
2018-10-03T20:22:02.712Z,90.80
2018-10-03T20:24:36.135Z,90.90
2018-10-03T20:27:10.490Z,91.00
2018-10-03T20:29:43.888Z,91.00
2018-10-03T20:32:17.288Z,91.20
2018-10-03T20:34:50.725Z,90.70
2018-10-03T20:37:24.130Z,90.60
2018-10-03T20:39:57.574Z,90.90
2018-10-03T20:42:30.989Z,90.80
2018-10-03T20:45:04.481Z,90.90
2018-10-03T20:47:37.879Z,90.80
2018-10-03T20:50:11.371Z,91.10
2018-10-03T20:52:44.774Z,91.50
2018-10-03T20:55:18.195Z,91.50
2018-10-03T20:57:51.603Z,91.30
2018-10-03T21:00:25.106Z,91.10
2018-10-03T21:02:58.519Z,91.20
2018-10-03T21:05:31.944Z,91.10
2018-10-03T21:08:05.372Z,91.20
2018-10-03T21:10:38.846Z,91.10
2018-10-03T21:13:12.275Z,90.70
2018-10-03T21:15:45.670Z,91.00
2018-10-03T21:18:19.104Z,90.90
2018-10-03T21:20:52.521Z,90.70
2018-10-03T21:23:26.210Z,90.70
2018-10-03T21:25:59.637Z,90.60
2018-10-03T21:28:33.052Z,90.60
2018-10-03T21:31:06.783Z,90.70
2018-10-03T21:33:40.200Z,90.60
2018-10-03T21:36:13.604Z,90.60
2018-10-03T21:38:47.031Z,90.60
2018-10-03T21:41:20.424Z,90.60
2018-10-03T21:43:53.816Z,90.60
2018-10-03T21:46:27.199Z,90.70
2018-10-03T21:49:00.604Z,90.50
2018-10-03T21:51:33.984Z,91.20
2018-10-03T21:54:07.397Z,91.20
2018-10-03T21:56:40.770Z,91.20
2018-10-03T21:59:14.223Z,91.50
2018-10-03T22:01:47.567Z,91.90
2018-10-03T22:04:20.979Z,92.00
2018-10-03T22:06:54.388Z,92.00
2018-10-03T22:09:27.786Z,91.80
2018-10-03T22:12:01.160Z,91.50
2018-10-03T22:14:34.559Z,91.40
2018-10-03T22:17:13.344Z,91.30
2018-10-03T22:19:46.776Z,91.20
2018-10-03T22:22:20.207Z,91.10
2018-10-03T22:24:53.605Z,91.00
2018-10-03T22:27:27.014Z,91.00
2018-10-03T22:30:00.415Z,90.80
2018-10-03T22:32:33.844Z,90.90
2018-10-03T22:35:07.261Z,90.70
2018-10-03T22:37:40.632Z,90.70
2018-10-03T22:40:14.019Z,90.70
2018-10-03T22:42:47.411Z,90.50
2018-10-03T22:45:20.812Z,90.40
2018-10-03T22:47:54.187Z,90.30
2018-10-03T22:50:27.580Z,90.30
2018-10-03T22:53:00.952Z,90.10
2018-10-03T22:55:34.351Z,90.10
2018-10-03T22:58:07.788Z,90.20
2018-10-03T23:00:41.179Z,90.10
2018-10-03T23:03:14.560Z,90.10
2018-10-03T23:05:48.037Z,90.00
2018-10-03T23:08:21.549Z,90.00
2018-10-03T23:10:54.968Z,90.00
2018-10-03T23:13:28.342Z,90.00
2018-10-03T23:16:01.748Z,89.90
2018-10-03T23:18:35.127Z,89.70
2018-10-03T23:21:08.535Z,89.60
2018-10-03T23:23:41.980Z,90.60
2018-10-03T23:26:15.375Z,92.00
2018-10-03T23:28:48.748Z,91.70
2018-10-03T23:31:22.142Z,91.40
2018-10-03T23:33:55.520Z,91.90
2018-10-03T23:36:28.915Z,92.20
2018-10-03T23:39:02.340Z,92.20
2018-10-03T23:41:35.789Z,92.50
2018-10-03T23:44:09.520Z,92.00
2018-10-03T23:46:42.951Z,91.60
2018-10-03T23:49:16.359Z,91.20
2018-10-03T23:51:49.768Z,91.20
2018-10-03T23:54:23.205Z,91.00
2018-10-03T23:56:56.659Z,90.90
2018-10-03T23:59:30.064Z,91.10
